sensor_id;sensor_type;location;lat;lon;timestamp;P1;durP1;ratioP1;P2;durP2;ratioP2
1402;SDS011;696;48.546;9.896;2024-01-15T00:01:06;0.70;;;0.70;;
1402;SDS011;696;48.546;9.896;2024-01-15T00:03:31;0.50;;;0.50;;
1402;SDS011;696;48.546;9.896;2024-01-15T00:05:57;0.60;;;0.60;;
1402;SDS011;696;48.546;9.896;2024-01-15T00:08:22;0.60;;;0.60;;
1402;SDS011;696;48.546;9.896;2024-01-15T00:10:48;0.77;;;0.77;;
1402;SDS011;696;48.546;9.896;2024-01-15T00:13:13;0.70;;;0.70;;
1402;SDS011;696;48.546;9.896;2024-01-15T00:15:38;0.50;;;0.50;;
1402;SDS011;696;48.546;9.896;2024-01-15T00:18:04;0.60;;;0.60;;
1402;SDS011;696;48.546;9.896;2024-01-15T00:20:30;0.60;;;0.60;;
1402;SDS011;696;48.546;9.896;2024-01-15T00:22:55;0.55;;;0.55;;
1402;SDS011;696;48.546;9.896;2024-01-15T00:25:21;0.50;;;0.50;;
1402;SDS011;696;48.546;9.896;2024-01-15T00:27:46;0.60;;;0.60;;
1402;SDS011;696;48.546;9.896;2024-01-15T00:30:11;0.65;;;0.65;;
1402;SDS011;696;48.546;9.896;2024-01-15T00:32:37;0.60;;;0.60;;
1402;SDS011;696;48.546;9.896;2024-01-15T00:35:03;0.55;;;0.55;;
1402;SDS011;696;48.546;9.896;2024-01-15T00:37:28;0.60;;;0.60;;
1402;SDS011;696;48.546;9.896;2024-01-15T00:39:54;0.65;;;0.65;;
1402;SDS011;696;48.546;9.896;2024-01-15T00:42:19;0.50;;;0.50;;
1402;SDS011;696;48.546;9.896;2024-01-15T00:44:44;0.70;;;0.70;;
1402;SDS011;696;48.546;9.896;2024-01-15T00:47:10;0.50;;;0.50;;
1402;SDS011;696;48.546;9.896;2024-01-15T00:49:35;0.60;;;0.60;;
1402;SDS011;696;48.546;9.896;2024-01-15T00:52:00;0.60;;;0.60;;
1402;SDS011;696;48.546;9.896;2024-01-15T00:54:26;0.63;;;0.63;;
1402;SDS011;696;48.546;9.896;2024-01-15T00:56:51;0.60;;;0.60;;
1402;SDS011;696;48.546;9.896;2024-01-15T00:59:17;0.60;;;0.60;;
1402;SDS011;696;48.546;9.896;2024-01-15T01:01:42;0.57;;;0.57;;
1402;SDS011;696;48.546;9.896;2024-01-15T01:04:09;0.60;;;0.60;;
1402;SDS011;696;48.546;9.896;2024-01-15T01:06:35;0.70;;;0.70;;
1402;SDS011;696;48.546;9.896;2024-01-15T01:09:00;0.50;;;0.50;;
1402;SDS011;696;48.546;9.896;2024-01-15T01:11:26;0.60;;;0.60;;
1402;SDS011;696;48.546;9.896;2024-01-15T01:13:51;0.65;;;0.65;;
1402;SDS011;696;48.546;9.896;2024-01-15T01:16:16;0.60;;;0.60;;
1402;SDS011;696;48.546;9.896;2024-01-15T01:18:42;0.60;;;0.60;;
1402;SDS011;696;48.546;9.896;2024-01-15T01:21:07;0.70;;;0.70;;
1402;SDS011;696;48.546;9.896;2024-01-15T01:23:32;0.50;;;0.50;;
1402;SDS011;696;48.546;9.896;2024-01-15T01:25:58;0.68;;;0.68;;
1402;SDS011;696;48.546;9.896;2024-01-15T01:28:23;0.60;;;0.60;;
1402;SDS011;696;48.546;9.896;2024-01-15T01:30:49;0.60;;;0.60;;
1402;SDS011;696;48.546;9.896;2024-01-15T01:33:14;0.65;;;0.65;;
1402;SDS011;696;48.546;9.896;2024-01-15T01:35:39;0.60;;;0.60;;
1402;SDS011;696;48.546;9.896;2024-01-15T01:38:05;0.60;;;0.60;;
1402;SDS011;696;48.546;9.896;2024-01-15T01:40:30;0.70;;;0.70;;
1402;SDS011;696;48.546;9.896;2024-01-15T01:42:55;0.70;;;0.70;;
1402;SDS011;696;48.546;9.896;2024-01-15T01:45:21;0.68;;;0.68;;
1402;SDS011;696;48.546;9.896;2024-01-15T01:47:46;0.70;;;0.70;;
1402;SDS011;696;48.546;9.896;2024-01-15T01:50:12;0.60;;;0.60;;
1402;SDS011;696;48.546;9.896;2024-01-15T01:52:38;0.60;;;0.60;;
1402;SDS011;696;48.546;9.896;2024-01-15T01:55:03;0.70;;;0.70;;
1402;SDS011;696;48.546;9.896;2024-01-15T01:57:30;0.70;;;0.70;;
1402;SDS011;696;48.546;9.896;2024-01-15T02:00:00;0.60;;;0.60;;
1402;SDS011;696;48.546;9.896;2024-01-15T02:02:32;0.70;;;0.70;;
1402;SDS011;696;48.546;9.896;2024-01-15T02:05:01;0.60;;;0.60;;
1402;SDS011;696;48.546;9.896;2024-01-15T02:07:34;0.65;;;0.65;;
1402;SDS011;696;48.546;9.896;2024-01-15T02:10:00;0.70;;;0.70;;
1402;SDS011;696;48.546;9.896;2024-01-15T02:12:26;0.80;;;0.80;;
1402;SDS011;696;48.546;9.896;2024-01-15T02:14:55;0.60;;;0.60;;
1402;SDS011;696;48.546;9.896;2024-01-15T02:17:20;0.77;;;0.77;;
1402;SDS011;696;48.546;9.896;2024-01-15T02:19:49;0.63;;;0.63;;
1402;SDS011;696;48.546;9.896;2024-01-15T02:22:18;0.60;;;0.60;;
1402;SDS011;696;48.546;9.896;2024-01-15T02:24:46;0.80;;;0.80;;
1402;SDS011;696;48.546;9.896;2024-01-15T02:27:11;0.63;;;0.63;;
1402;SDS011;696;48.546;9.896;2024-01-15T02:29:54;0.70;;;0.70;;
1402;SDS011;696;48.546;9.896;2024-01-15T02:32:20;0.73;;;0.73;;
1402;SDS011;696;48.546;9.896;2024-01-15T02:34:49;0.70;;;0.70;;
1402;SDS011;696;48.546;9.896;2024-01-15T02:37:15;0.80;;;0.80;;
1402;SDS011;696;48.546;9.896;2024-01-15T02:39:40;0.70;;;0.70;;
1402;SDS011;696;48.546;9.896;2024-01-15T02:42:06;0.60;;;0.60;;
1402;SDS011;696;48.546;9.896;2024-01-15T02:44:32;0.60;;;0.60;;
1402;SDS011;696;48.546;9.896;2024-01-15T02:46:58;0.60;;;0.60;;
1402;SDS011;696;48.546;9.896;2024-01-15T02:49:26;0.70;;;0.70;;
1402;SDS011;696;48.546;9.896;2024-01-15T02:51:54;0.80;;;0.80;;
1402;SDS011;696;48.546;9.896;2024-01-15T02:54:29;0.70;;;0.70;;
1402;SDS011;696;48.546;9.896;2024-01-15T02:56:55;0.60;;;0.60;;
1402;SDS011;696;48.546;9.896;2024-01-15T02:59:27;0.60;;;0.60;;
1402;SDS011;696;48.546;9.896;2024-01-15T03:01:52;0.70;;;0.70;;
1402;SDS011;696;48.546;9.896;2024-01-15T03:04:21;0.70;;;0.70;;
1402;SDS011;696;48.546;9.896;2024-01-15T03:06:47;0.60;;;0.60;;
1402;SDS011;696;48.546;9.896;2024-01-15T03:09:12;0.70;;;0.70;;
1402;SDS011;696;48.546;9.896;2024-01-15T03:11:38;0.82;;;0.82;;
1402;SDS011;696;48.546;9.896;2024-01-15T03:14:04;0.70;;;0.70;;
1402;SDS011;696;48.546;9.896;2024-01-15T03:16:30;0.63;;;0.63;;
1402;SDS011;696;48.546;9.896;2024-01-15T03:18:55;0.70;;;0.70;;
1402;SDS011;696;48.546;9.896;2024-01-15T03:21:21;0.68;;;0.68;;
1402;SDS011;696;48.546;9.896;2024-01-15T03:23:47;0.68;;;0.68;;
1402;SDS011;696;48.546;9.896;2024-01-15T03:26:18;0.80;;;0.80;;
1402;SDS011;696;48.546;9.896;2024-01-15T03:28:44;0.63;;;0.63;;
1402;SDS011;696;48.546;9.896;2024-01-15T03:31:13;0.70;;;0.70;;
1402;SDS011;696;48.546;9.896;2024-01-15T03:33:41;0.80;;;0.80;;
1402;SDS011;696;48.546;9.896;2024-01-15T03:36:12;0.80;;;0.80;;
1402;SDS011;696;48.546;9.896;2024-01-15T03:38:40;0.70;;;0.70;;
1402;SDS011;696;48.546;9.896;2024-01-15T03:41:06;0.70;;;0.70;;
1402;SDS011;696;48.546;9.896;2024-01-15T03:43:32;0.68;;;0.68;;
1402;SDS011;696;48.546;9.896;2024-01-15T03:45:58;0.70;;;0.70;;
1402;SDS011;696;48.546;9.896;2024-01-15T03:48:24;0.60;;;0.60;;
1402;SDS011;696;48.546;9.896;2024-01-15T03:50:57;0.60;;;0.60;;
1402;SDS011;696;48.546;9.896;2024-01-15T03:53:23;0.70;;;0.70;;
1402;SDS011;696;48.546;9.896;2024-01-15T03:55:51;0.77;;;0.77;;
1402;SDS011;696;48.546;9.896;2024-01-15T03:58:17;0.63;;;0.63;;
1402;SDS011;696;48.546;9.896;2024-01-15T04:00:43;0.70;;;0.70;;
1402;SDS011;696;48.546;9.896;2024-01-15T04:03:12;0.60;;;0.60;;
1402;SDS011;696;48.546;9.896;2024-01-15T04:05:38;0.70;;;0.70;;
1402;SDS011;696;48.546;9.896;2024-01-15T04:08:03;0.55;;;0.55;;
1402;SDS011;696;48.546;9.896;2024-01-15T04:10:29;0.60;;;0.60;;
1402;SDS011;696;48.546;9.896;2024-01-15T04:12:55;0.55;;;0.55;;
1402;SDS011;696;48.546;9.896;2024-01-15T04:15:20;0.63;;;0.63;;
1402;SDS011;696;48.546;9.896;2024-01-15T04:17:45;0.52;;;0.52;;
1402;SDS011;696;48.546;9.896;2024-01-15T04:20:11;0.60;;;0.60;;
1402;SDS011;696;48.546;9.896;2024-01-15T04:22:36;0.50;;;0.50;;
1402;SDS011;696;48.546;9.896;2024-01-15T04:25:02;0.50;;;0.50;;
1402;SDS011;696;48.546;9.896;2024-01-15T04:27:27;0.50;;;0.50;;
1402;SDS011;696;48.546;9.896;2024-01-15T04:29:52;0.57;;;0.57;;
1402;SDS011;696;48.546;9.896;2024-01-15T04:32:18;0.57;;;0.57;;
1402;SDS011;696;48.546;9.896;2024-01-15T04:34:44;0.60;;;0.60;;
1402;SDS011;696;48.546;9.896;2024-01-15T04:37:09;0.50;;;0.50;;
1402;SDS011;696;48.546;9.896;2024-01-15T04:39:35;0.60;;;0.60;;
1402;SDS011;696;48.546;9.896;2024-01-15T04:42:00;0.50;;;0.50;;
1402;SDS011;696;48.546;9.896;2024-01-15T04:44:25;0.50;;;0.50;;
1402;SDS011;696;48.546;9.896;2024-01-15T04:46:51;0.60;;;0.60;;
1402;SDS011;696;48.546;9.896;2024-01-15T04:49:16;0.60;;;0.60;;
1402;SDS011;696;48.546;9.896;2024-01-15T04:51:41;0.60;;;0.60;;
1402;SDS011;696;48.546;9.896;2024-01-15T04:54:07;0.50;;;0.50;;
1402;SDS011;696;48.546;9.896;2024-01-15T04:56:32;0.60;;;0.60;;
1402;SDS011;696;48.546;9.896;2024-01-15T04:58:57;0.57;;;0.57;;
1402;SDS011;696;48.546;9.896;2024-01-15T05:01:22;0.60;;;0.60;;
1402;SDS011;696;48.546;9.896;2024-01-15T05:03:48;0.63;;;0.63;;
1402;SDS011;696;48.546;9.896;2024-01-15T05:06:14;0.40;;;0.40;;
1402;SDS011;696;48.546;9.896;2024-01-15T05:08:39;0.52;;;0.52;;
1402;SDS011;696;48.546;9.896;2024-01-15T05:11:05;0.50;;;0.50;;
1402;SDS011;696;48.546;9.896;2024-01-15T05:13:30;0.50;;;0.50;;
1402;SDS011;696;48.546;9.896;2024-01-15T05:15:55;0.60;;;0.60;;
1402;SDS011;696;48.546;9.896;2024-01-15T05:18:21;0.50;;;0.50;;
1402;SDS011;696;48.546;9.896;2024-01-15T05:20:46;0.50;;;0.50;;
1402;SDS011;696;48.546;9.896;2024-01-15T05:23:11;0.50;;;0.50;;
1402;SDS011;696;48.546;9.896;2024-01-15T05:25:37;0.55;;;0.55;;
1402;SDS011;696;48.546;9.896;2024-01-15T05:28:02;0.50;;;0.50;;
1402;SDS011;696;48.546;9.896;2024-01-15T05:30:27;0.60;;;0.60;;
1402;SDS011;696;48.546;9.896;2024-01-15T05:32:53;0.50;;;0.50;;
1402;SDS011;696;48.546;9.896;2024-01-15T05:35:19;0.60;;;0.60;;
1402;SDS011;696;48.546;9.896;2024-01-15T05:37:45;0.50;;;0.50;;
1402;SDS011;696;48.546;9.896;2024-01-15T05:40:11;0.50;;;0.50;;
1402;SDS011;696;48.546;9.896;2024-01-15T05:42:37;0.50;;;0.50;;
1402;SDS011;696;48.546;9.896;2024-01-15T05:45:03;0.45;;;0.45;;
1402;SDS011;696;48.546;9.896;2024-01-15T05:47:29;0.50;;;0.50;;
1402;SDS011;696;48.546;9.896;2024-01-15T05:49:56;0.60;;;0.60;;
1402;SDS011;696;48.546;9.896;2024-01-15T05:52:25;0.52;;;0.52;;
1402;SDS011;696;48.546;9.896;2024-01-15T05:54:51;0.50;;;0.50;;
1402;SDS011;696;48.546;9.896;2024-01-15T05:57:16;0.57;;;0.57;;
1402;SDS011;696;48.546;9.896;2024-01-15T05:59:42;0.50;;;0.50;;
1402;SDS011;696;48.546;9.896;2024-01-15T06:02:08;0.50;;;0.50;;
1402;SDS011;696;48.546;9.896;2024-01-15T06:04:33;0.43;;;0.43;;
1402;SDS011;696;48.546;9.896;2024-01-15T06:06:58;0.50;;;0.50;;
1402;SDS011;696;48.546;9.896;2024-01-15T06:09:24;0.50;;;0.50;;
1402;SDS011;696;48.546;9.896;2024-01-15T06:11:49;0.50;;;0.50;;
1402;SDS011;696;48.546;9.896;2024-01-15T06:14:14;0.50;;;0.50;;
1402;SDS011;696;48.546;9.896;2024-01-15T06:16:40;0.50;;;0.50;;
1402;SDS011;696;48.546;9.896;2024-01-15T06:19:05;0.50;;;0.50;;
1402;SDS011;696;48.546;9.896;2024-01-15T06:21:30;0.50;;;0.50;;
1402;SDS011;696;48.546;9.896;2024-01-15T06:23:56;0.50;;;0.50;;
1402;SDS011;696;48.546;9.896;2024-01-15T06:26:22;0.50;;;0.50;;
1402;SDS011;696;48.546;9.896;2024-01-15T06:28:47;0.60;;;0.60;;
1402;SDS011;696;48.546;9.896;2024-01-15T06:31:13;0.57;;;0.57;;
1402;SDS011;696;48.546;9.896;2024-01-15T06:33:38;0.40;;;0.40;;
1402;SDS011;696;48.546;9.896;2024-01-15T06:36:03;0.55;;;0.55;;
1402;SDS011;696;48.546;9.896;2024-01-15T06:38:29;0.50;;;0.50;;
1402;SDS011;696;48.546;9.896;2024-01-15T06:40:54;0.60;;;0.60;;
1402;SDS011;696;48.546;9.896;2024-01-15T06:43:20;0.50;;;0.50;;
1402;SDS011;696;48.546;9.896;2024-01-15T06:45:45;0.52;;;0.52;;
1402;SDS011;696;48.546;9.896;2024-01-15T06:48:10;0.50;;;0.50;;
1402;SDS011;696;48.546;9.896;2024-01-15T06:50:40;0.50;;;0.50;;
1402;SDS011;696;48.546;9.896;2024-01-15T06:53:05;0.50;;;0.50;;
1402;SDS011;696;48.546;9.896;2024-01-15T06:55:31;0.55;;;0.55;;
1402;SDS011;696;48.546;9.896;2024-01-15T06:57:56;0.60;;;0.60;;
1402;SDS011;696;48.546;9.896;2024-01-15T07:00:22;0.55;;;0.55;;
1402;SDS011;696;48.546;9.896;2024-01-15T07:02:47;0.40;;;0.40;;
1402;SDS011;696;48.546;9.896;2024-01-15T07:05:12;0.50;;;0.50;;
1402;SDS011;696;48.546;9.896;2024-01-15T07:07:38;0.50;;;0.50;;
1402;SDS011;696;48.546;9.896;2024-01-15T07:10:03;0.50;;;0.50;;
1402;SDS011;696;48.546;9.896;2024-01-15T07:12:30;0.60;;;0.60;;
1402;SDS011;696;48.546;9.896;2024-01-15T07:14:58;0.70;;;0.70;;
1402;SDS011;696;48.546;9.896;2024-01-15T07:17:23;0.60;;;0.60;;
1402;SDS011;696;48.546;9.896;2024-01-15T07:19:49;0.57;;;0.57;;
1402;SDS011;696;48.546;9.896;2024-01-15T07:22:14;0.47;;;0.47;;
1402;SDS011;696;48.546;9.896;2024-01-15T07:24:42;0.50;;;0.50;;
1402;SDS011;696;48.546;9.896;2024-01-15T07:27:07;0.50;;;0.50;;
1402;SDS011;696;48.546;9.896;2024-01-15T07:29:33;0.50;;;0.50;;
1402;SDS011;696;48.546;9.896;2024-01-15T07:32:01;0.52;;;0.52;;
1402;SDS011;696;48.546;9.896;2024-01-15T07:34:26;0.50;;;0.50;;
1402;SDS011;696;48.546;9.896;2024-01-15T07:36:51;0.50;;;0.50;;
1402;SDS011;696;48.546;9.896;2024-01-15T07:39:17;0.50;;;0.50;;
1402;SDS011;696;48.546;9.896;2024-01-15T07:41:42;0.50;;;0.50;;
1402;SDS011;696;48.546;9.896;2024-01-15T07:44:08;0.70;;;0.70;;
1402;SDS011;696;48.546;9.896;2024-01-15T07:46:33;0.50;;;0.50;;
1402;SDS011;696;48.546;9.896;2024-01-15T07:48:58;0.50;;;0.50;;
1402;SDS011;696;48.546;9.896;2024-01-15T07:51:24;0.50;;;0.50;;
1402;SDS011;696;48.546;9.896;2024-01-15T07:53:49;0.50;;;0.50;;
1402;SDS011;696;48.546;9.896;2024-01-15T07:56:15;0.50;;;0.50;;
1402;SDS011;696;48.546;9.896;2024-01-15T07:58:41;0.50;;;0.50;;
1402;SDS011;696;48.546;9.896;2024-01-15T08:01:06;0.50;;;0.50;;
1402;SDS011;696;48.546;9.896;2024-01-15T08:03:32;0.43;;;0.43;;
1402;SDS011;696;48.546;9.896;2024-01-15T08:05:58;0.50;;;0.50;;
1402;SDS011;696;48.546;9.896;2024-01-15T08:08:24;0.40;;;0.40;;
1402;SDS011;696;48.546;9.896;2024-01-15T08:10:50;0.50;;;0.50;;
1402;SDS011;696;48.546;9.896;2024-01-15T08:13:16;0.60;;;0.60;;
1402;SDS011;696;48.546;9.896;2024-01-15T08:15:42;0.40;;;0.40;;
1402;SDS011;696;48.546;9.896;2024-01-15T08:18:07;0.40;;;0.40;;
1402;SDS011;696;48.546;9.896;2024-01-15T08:20:32;0.40;;;0.40;;
1402;SDS011;696;48.546;9.896;2024-01-15T08:22:58;0.40;;;0.40;;
1402;SDS011;696;48.546;9.896;2024-01-15T08:25:24;0.50;;;0.50;;
1402;SDS011;696;48.546;9.896;2024-01-15T08:27:49;0.50;;;0.50;;
1402;SDS011;696;48.546;9.896;2024-01-15T08:30:14;0.40;;;0.40;;
1402;SDS011;696;48.546;9.896;2024-01-15T08:32:40;0.50;;;0.50;;
1402;SDS011;696;48.546;9.896;2024-01-15T08:35:08;0.50;;;0.50;;
1402;SDS011;696;48.546;9.896;2024-01-15T08:37:34;0.40;;;0.40;;
1402;SDS011;696;48.546;9.896;2024-01-15T08:39:59;0.40;;;0.40;;
1402;SDS011;696;48.546;9.896;2024-01-15T08:42:25;0.50;;;0.50;;
1402;SDS011;696;48.546;9.896;2024-01-15T08:44:50;0.50;;;0.50;;
1402;SDS011;696;48.546;9.896;2024-01-15T08:47:16;0.40;;;0.40;;
1402;SDS011;696;48.546;9.896;2024-01-15T08:49:42;0.50;;;0.50;;
1402;SDS011;696;48.546;9.896;2024-01-15T08:52:09;0.47;;;0.47;;
1402;SDS011;696;48.546;9.896;2024-01-15T08:54:34;0.40;;;0.40;;
1402;SDS011;696;48.546;9.896;2024-01-15T08:57:00;0.43;;;0.43;;
1402;SDS011;696;48.546;9.896;2024-01-15T08:59:25;0.40;;;0.40;;
1402;SDS011;696;48.546;9.896;2024-01-15T09:01:51;0.40;;;0.40;;
1402;SDS011;696;48.546;9.896;2024-01-15T09:04:17;0.40;;;0.40;;
1402;SDS011;696;48.546;9.896;2024-01-15T09:06:46;0.40;;;0.40;;
1402;SDS011;696;48.546;9.896;2024-01-15T09:09:14;0.40;;;0.40;;
1402;SDS011;696;48.546;9.896;2024-01-15T09:11:40;0.40;;;0.40;;
1402;SDS011;696;48.546;9.896;2024-01-15T09:14:06;0.40;;;0.40;;
1402;SDS011;696;48.546;9.896;2024-01-15T09:16:31;0.30;;;0.30;;
1402;SDS011;696;48.546;9.896;2024-01-15T09:18:56;0.30;;;0.30;;
1402;SDS011;696;48.546;9.896;2024-01-15T09:21:22;0.40;;;0.40;;
1402;SDS011;696;48.546;9.896;2024-01-15T09:23:49;0.40;;;0.40;;
1402;SDS011;696;48.546;9.896;2024-01-15T09:26:15;0.35;;;0.35;;
1402;SDS011;696;48.546;9.896;2024-01-15T09:28:40;0.30;;;0.30;;
1402;SDS011;696;48.546;9.896;2024-01-15T09:31:05;0.40;;;0.40;;
1402;SDS011;696;48.546;9.896;2024-01-15T09:33:31;0.40;;;0.40;;
1402;SDS011;696;48.546;9.896;2024-01-15T09:35:56;0.30;;;0.30;;
1402;SDS011;696;48.546;9.896;2024-01-15T09:38:22;0.40;;;0.40;;
1402;SDS011;696;48.546;9.896;2024-01-15T09:40:49;0.40;;;0.40;;
1402;SDS011;696;48.546;9.896;2024-01-15T09:43:14;0.30;;;0.30;;
1402;SDS011;696;48.546;9.896;2024-01-15T09:45:40;0.40;;;0.40;;
1402;SDS011;696;48.546;9.896;2024-01-15T09:48:07;0.30;;;0.30;;
1402;SDS011;696;48.546;9.896;2024-01-15T09:50:32;0.40;;;0.40;;
1402;SDS011;696;48.546;9.896;2024-01-15T09:52:57;0.30;;;0.30;;
1402;SDS011;696;48.546;9.896;2024-01-15T09:55:23;0.40;;;0.40;;
1402;SDS011;696;48.546;9.896;2024-01-15T09:57:48;0.40;;;0.40;;
1402;SDS011;696;48.546;9.896;2024-01-15T10:00:17;0.40;;;0.40;;
1402;SDS011;696;48.546;9.896;2024-01-15T10:02:42;0.40;;;0.40;;
1402;SDS011;696;48.546;9.896;2024-01-15T10:05:08;0.40;;;0.40;;
1402;SDS011;696;48.546;9.896;2024-01-15T10:07:34;0.30;;;0.30;;
1402;SDS011;696;48.546;9.896;2024-01-15T10:10:01;0.30;;;0.30;;
1402;SDS011;696;48.546;9.896;2024-01-15T10:12:28;0.40;;;0.40;;
1402;SDS011;696;48.546;9.896;2024-01-15T10:14:53;0.30;;;0.30;;
1402;SDS011;696;48.546;9.896;2024-01-15T10:17:19;0.30;;;0.30;;
1402;SDS011;696;48.546;9.896;2024-01-15T10:19:47;0.35;;;0.35;;
1402;SDS011;696;48.546;9.896;2024-01-15T10:22:16;0.30;;;0.30;;
1402;SDS011;696;48.546;9.896;2024-01-15T10:24:42;0.30;;;0.30;;
1402;SDS011;696;48.546;9.896;2024-01-15T10:27:08;0.40;;;0.40;;
1402;SDS011;696;48.546;9.896;2024-01-15T10:29:34;0.50;;;0.50;;
1402;SDS011;696;48.546;9.896;2024-01-15T10:32:00;0.40;;;0.40;;
1402;SDS011;696;48.546;9.896;2024-01-15T10:34:26;0.40;;;0.40;;
1402;SDS011;696;48.546;9.896;2024-01-15T10:36:51;0.40;;;0.40;;
1402;SDS011;696;48.546;9.896;2024-01-15T10:39:23;0.40;;;0.40;;
1402;SDS011;696;48.546;9.896;2024-01-15T10:41:49;0.40;;;0.40;;
1402;SDS011;696;48.546;9.896;2024-01-15T10:44:16;0.30;;;0.30;;
1402;SDS011;696;48.546;9.896;2024-01-15T10:46:41;0.40;;;0.40;;
1402;SDS011;696;48.546;9.896;2024-01-15T10:49:08;0.38;;;0.38;;
1402;SDS011;696;48.546;9.896;2024-01-15T10:51:33;0.40;;;0.40;;
1402;SDS011;696;48.546;9.896;2024-01-15T10:53:59;0.40;;;0.40;;
1402;SDS011;696;48.546;9.896;2024-01-15T10:56:25;0.40;;;0.40;;
1402;SDS011;696;48.546;9.896;2024-01-15T10:58:52;0.30;;;0.30;;
1402;SDS011;696;48.546;9.896;2024-01-15T11:01:19;0.40;;;0.40;;
1402;SDS011;696;48.546;9.896;2024-01-15T11:03:45;0.40;;;0.40;;
1402;SDS011;696;48.546;9.896;2024-01-15T11:06:18;0.40;;;0.40;;
1402;SDS011;696;48.546;9.896;2024-01-15T11:08:50;0.40;;;0.40;;
1402;SDS011;696;48.546;9.896;2024-01-15T11:11:16;0.30;;;0.30;;
1402;SDS011;696;48.546;9.896;2024-01-15T11:13:42;0.30;;;0.30;;
1402;SDS011;696;48.546;9.896;2024-01-15T11:16:11;0.40;;;0.40;;
1402;SDS011;696;48.546;9.896;2024-01-15T11:18:41;0.38;;;0.38;;
1402;SDS011;696;48.546;9.896;2024-01-15T11:23:42;0.30;;;0.30;;
1402;SDS011;696;48.546;9.896;2024-01-15T11:26:34;0.40;;;0.40;;
1402;SDS011;696;48.546;9.896;2024-01-15T11:29:06;0.40;;;0.40;;
1402;SDS011;696;48.546;9.896;2024-01-15T11:34:03;0.40;;;0.40;;
1402;SDS011;696;48.546;9.896;2024-01-15T11:44:26;0.50;;;0.50;;
1402;SDS011;696;48.546;9.896;2024-01-15T11:46:59;0.50;;;0.50;;
1402;SDS011;696;48.546;9.896;2024-01-15T11:52:16;0.35;;;0.35;;
1402;SDS011;696;48.546;9.896;2024-01-15T11:54:45;0.47;;;0.47;;
1402;SDS011;696;48.546;9.896;2024-01-15T11:57:17;0.40;;;0.40;;
1402;SDS011;696;48.546;9.896;2024-01-15T11:59:46;0.47;;;0.47;;
1402;SDS011;696;48.546;9.896;2024-01-15T12:02:11;0.40;;;0.40;;
1402;SDS011;696;48.546;9.896;2024-01-15T12:04:38;0.40;;;0.40;;
1402;SDS011;696;48.546;9.896;2024-01-15T12:07:04;0.40;;;0.40;;
1402;SDS011;696;48.546;9.896;2024-01-15T12:09:29;0.50;;;0.50;;
1402;SDS011;696;48.546;9.896;2024-01-15T12:11:57;0.35;;;0.35;;
1402;SDS011;696;48.546;9.896;2024-01-15T12:14:30;0.40;;;0.40;;
1402;SDS011;696;48.546;9.896;2024-01-15T12:16:56;0.40;;;0.40;;
1402;SDS011;696;48.546;9.896;2024-01-15T12:19:22;0.40;;;0.40;;
1402;SDS011;696;48.546;9.896;2024-01-15T12:21:47;0.40;;;0.40;;
1402;SDS011;696;48.546;9.896;2024-01-15T12:24:13;0.40;;;0.40;;
1402;SDS011;696;48.546;9.896;2024-01-15T12:26:38;0.30;;;0.30;;
1402;SDS011;696;48.546;9.896;2024-01-15T12:29:06;0.50;;;0.50;;
1402;SDS011;696;48.546;9.896;2024-01-15T12:31:32;0.40;;;0.40;;
1402;SDS011;696;48.546;9.896;2024-01-15T12:33:57;0.40;;;0.40;;
1402;SDS011;696;48.546;9.896;2024-01-15T12:36:23;0.50;;;0.50;;
1402;SDS011;696;48.546;9.896;2024-01-15T12:38:48;0.35;;;0.35;;
1402;SDS011;696;48.546;9.896;2024-01-15T12:41:14;0.50;;;0.50;;
1402;SDS011;696;48.546;9.896;2024-01-15T12:43:40;0.40;;;0.40;;
1402;SDS011;696;48.546;9.896;2024-01-15T12:46:05;0.50;;;0.50;;
1402;SDS011;696;48.546;9.896;2024-01-15T12:48:31;0.43;;;0.43;;
1402;SDS011;696;48.546;9.896;2024-01-15T12:50:56;0.40;;;0.40;;
1402;SDS011;696;48.546;9.896;2024-01-15T12:53:21;0.50;;;0.50;;
1402;SDS011;696;48.546;9.896;2024-01-15T12:55:47;0.55;;;0.55;;
1402;SDS011;696;48.546;9.896;2024-01-15T12:58:13;0.40;;;0.40;;
1402;SDS011;696;48.546;9.896;2024-01-15T13:00:38;0.40;;;0.40;;
1402;SDS011;696;48.546;9.896;2024-01-15T13:03:04;0.40;;;0.40;;
1402;SDS011;696;48.546;9.896;2024-01-15T13:05:31;0.40;;;0.40;;
1402;SDS011;696;48.546;9.896;2024-01-15T13:07:56;0.40;;;0.40;;
1402;SDS011;696;48.546;9.896;2024-01-15T13:10:22;0.50;;;0.50;;
1402;SDS011;696;48.546;9.896;2024-01-15T13:12:47;0.45;;;0.45;;
1402;SDS011;696;48.546;9.896;2024-01-15T13:15:12;0.40;;;0.40;;
1402;SDS011;696;48.546;9.896;2024-01-15T13:17:38;0.50;;;0.50;;
1402;SDS011;696;48.546;9.896;2024-01-15T13:20:05;0.50;;;0.50;;
1402;SDS011;696;48.546;9.896;2024-01-15T13:22:31;0.40;;;0.40;;
1402;SDS011;696;48.546;9.896;2024-01-15T13:24:57;0.38;;;0.38;;
1402;SDS011;696;48.546;9.896;2024-01-15T13:27:23;0.40;;;0.40;;
1402;SDS011;696;48.546;9.896;2024-01-15T13:29:49;0.50;;;0.50;;
1402;SDS011;696;48.546;9.896;2024-01-15T13:32:14;0.40;;;0.40;;
1402;SDS011;696;48.546;9.896;2024-01-15T13:34:42;0.40;;;0.40;;
1402;SDS011;696;48.546;9.896;2024-01-15T13:37:08;0.47;;;0.47;;
1402;SDS011;696;48.546;9.896;2024-01-15T13:39:34;0.50;;;0.50;;
1402;SDS011;696;48.546;9.896;2024-01-15T13:42:01;0.40;;;0.40;;
1402;SDS011;696;48.546;9.896;2024-01-15T13:44:27;0.50;;;0.50;;
1402;SDS011;696;48.546;9.896;2024-01-15T13:46:52;0.40;;;0.40;;
1402;SDS011;696;48.546;9.896;2024-01-15T13:49:18;0.40;;;0.40;;
1402;SDS011;696;48.546;9.896;2024-01-15T13:51:43;0.43;;;0.43;;
1402;SDS011;696;48.546;9.896;2024-01-15T13:54:08;0.47;;;0.47;;
1402;SDS011;696;48.546;9.896;2024-01-15T13:56:34;0.40;;;0.40;;
1402;SDS011;696;48.546;9.896;2024-01-15T13:59:00;0.40;;;0.40;;
1402;SDS011;696;48.546;9.896;2024-01-15T14:01:26;0.40;;;0.40;;
1402;SDS011;696;48.546;9.896;2024-01-15T14:03:52;0.43;;;0.43;;
1402;SDS011;696;48.546;9.896;2024-01-15T14:06:18;0.40;;;0.40;;
1402;SDS011;696;48.546;9.896;2024-01-15T14:08:43;0.35;;;0.35;;
1402;SDS011;696;48.546;9.896;2024-01-15T14:11:09;0.40;;;0.40;;
1402;SDS011;696;48.546;9.896;2024-01-15T14:13:35;0.40;;;0.40;;
1402;SDS011;696;48.546;9.896;2024-01-15T14:16:00;0.30;;;0.30;;
1402;SDS011;696;48.546;9.896;2024-01-15T14:18:26;0.40;;;0.40;;
1402;SDS011;696;48.546;9.896;2024-01-15T14:20:52;0.40;;;0.40;;
1402;SDS011;696;48.546;9.896;2024-01-15T14:23:18;0.40;;;0.40;;
1402;SDS011;696;48.546;9.896;2024-01-15T14:25:44;0.40;;;0.40;;
1402;SDS011;696;48.546;9.896;2024-01-15T14:28:09;0.50;;;0.50;;
1402;SDS011;696;48.546;9.896;2024-01-15T14:30:35;0.40;;;0.40;;
1402;SDS011;696;48.546;9.896;2024-01-15T14:33:01;0.45;;;0.45;;
1402;SDS011;696;48.546;9.896;2024-01-15T14:35:26;0.40;;;0.40;;
1402;SDS011;696;48.546;9.896;2024-01-15T14:37:51;0.40;;;0.40;;
1402;SDS011;696;48.546;9.896;2024-01-15T14:40:17;0.50;;;0.50;;
1402;SDS011;696;48.546;9.896;2024-01-15T14:42:43;0.40;;;0.40;;
1402;SDS011;696;48.546;9.896;2024-01-15T14:45:08;0.40;;;0.40;;
1402;SDS011;696;48.546;9.896;2024-01-15T14:47:40;0.40;;;0.40;;
1402;SDS011;696;48.546;9.896;2024-01-15T14:50:06;0.40;;;0.40;;
1402;SDS011;696;48.546;9.896;2024-01-15T14:52:32;0.50;;;0.50;;
1402;SDS011;696;48.546;9.896;2024-01-15T14:54:58;0.40;;;0.40;;
1402;SDS011;696;48.546;9.896;2024-01-15T14:57:23;0.50;;;0.50;;
1402;SDS011;696;48.546;9.896;2024-01-15T14:59:49;0.40;;;0.40;;
1402;SDS011;696;48.546;9.896;2024-01-15T15:02:14;0.50;;;0.50;;
1402;SDS011;696;48.546;9.896;2024-01-15T15:04:40;0.40;;;0.40;;
1402;SDS011;696;48.546;9.896;2024-01-15T15:07:06;0.40;;;0.40;;
1402;SDS011;696;48.546;9.896;2024-01-15T15:09:32;0.50;;;0.50;;
1402;SDS011;696;48.546;9.896;2024-01-15T15:11:57;0.50;;;0.50;;
1402;SDS011;696;48.546;9.896;2024-01-15T15:14:23;0.40;;;0.40;;
1402;SDS011;696;48.546;9.896;2024-01-15T15:16:48;0.50;;;0.50;;
1402;SDS011;696;48.546;9.896;2024-01-15T15:19:14;0.50;;;0.50;;
1402;SDS011;696;48.546;9.896;2024-01-15T15:21:39;0.40;;;0.40;;
1402;SDS011;696;48.546;9.896;2024-01-15T15:24:05;0.50;;;0.50;;
1402;SDS011;696;48.546;9.896;2024-01-15T15:26:30;0.50;;;0.50;;
1402;SDS011;696;48.546;9.896;2024-01-15T15:28:56;0.50;;;0.50;;
1402;SDS011;696;48.546;9.896;2024-01-15T15:31:21;0.40;;;0.40;;
1402;SDS011;696;48.546;9.896;2024-01-15T15:33:46;0.57;;;0.57;;
1402;SDS011;696;48.546;9.896;2024-01-15T15:36:12;0.55;;;0.55;;
1402;SDS011;696;48.546;9.896;2024-01-15T15:38:37;0.50;;;0.50;;